< < Back
Terminal Aerodrome Forecast


Current Version              Previous Versions:   1  2  3  4  5  6  7  8  9  

Terminal Aerodrome Forecast

149
FTUS42 KTAE 311024 AAB
TAFVLD
TAF AMD
KVLD 311024Z 3110/0106 00000KT P6SM SKC
      TEMPO 3110/3113 4SM BR SKC
     FM311500 VRB04KT P6SM SCT060 SCT250=

Latest METAR

657
SAUS70 KWBC 312100 RRF
MTRVLD
METAR KVLD 312053Z VRB04KT 10SM BKN060 29/18 A2987 RMK AO2 LTG DSNT S
SLP121 T02940183 56017


USA.gov is the U.S. government's official web portal to all federal, state and local government web resources and services.